createdAt,value
2018-06-25T00:00:48.724Z,3.00
2018-06-25T00:03:16.796Z,1.00
2018-06-25T00:05:44.401Z,3.40
2018-06-25T00:08:12.044Z,3.00
2018-06-25T00:10:39.652Z,3.80
2018-06-25T00:13:07.623Z,6.40
2018-06-25T00:15:36.824Z,4.00
2018-06-25T00:18:04.691Z,0.00
2018-06-25T00:20:33.199Z,3.40
2018-06-25T00:23:02.075Z,4.00
2018-06-25T00:25:31.761Z,3.20
2018-06-25T00:28:01.236Z,4.80
2018-06-25T00:30:29.112Z,6.00
2018-06-25T00:32:56.699Z,3.60
2018-06-25T00:35:26.694Z,5.60
2018-06-25T00:37:54.287Z,3.00
2018-06-25T00:40:22.347Z,3.40
2018-06-25T00:42:49.977Z,4.00
2018-06-25T00:45:17.588Z,4.00
2018-06-25T00:47:45.505Z,1.00
2018-06-25T00:50:13.152Z,3.60
2018-06-25T00:52:42.433Z,2.60
2018-06-25T00:55:10.089Z,3.40
2018-06-25T00:57:38.032Z,3.80
2018-06-25T01:00:05.643Z,4.00
2018-06-25T01:02:33.298Z,4.00
2018-06-25T01:05:00.894Z,2.60
2018-06-25T01:07:28.788Z,3.60
2018-06-25T01:09:56.456Z,3.40
2018-06-25T01:12:25.422Z,3.00
2018-06-25T01:14:53.781Z,4.00
2018-06-25T01:17:21.391Z,3.00
2018-06-25T01:19:49.001Z,3.40
2018-06-25T01:22:16.604Z,4.00
2018-06-25T01:24:44.486Z,3.80
2018-06-25T01:27:12.096Z,3.00
2018-06-25T01:29:41.243Z,4.00
2018-06-25T01:32:09.210Z,4.00
2018-06-25T01:34:37.000Z,3.60
2018-06-25T01:37:04.821Z,3.20
2018-06-25T01:39:32.478Z,3.40
2018-06-25T01:42:00.402Z,4.00
2018-06-25T01:44:28.014Z,2.60
2018-06-25T01:46:55.631Z,3.20
2018-06-25T01:49:23.247Z,3.00
2018-06-25T01:51:51.131Z,3.00
2018-06-25T01:54:18.807Z,3.80
2018-06-25T01:56:46.424Z,3.20
2018-06-25T01:59:14.082Z,3.00
2018-06-25T02:01:41.939Z,4.00
2018-06-25T02:04:09.561Z,3.20
2018-06-25T02:06:37.177Z,4.20
2018-06-25T02:09:05.215Z,2.60
2018-06-25T02:11:33.148Z,1.00
2018-06-25T02:14:00.796Z,1.80
2018-06-25T02:16:28.415Z,1.00
2018-06-25T02:18:56.335Z,1.40
2018-06-25T02:21:23.963Z,1.00
2018-06-25T02:23:51.571Z,1.00
2018-06-25T02:26:19.491Z,0.60
2018-06-25T02:28:47.122Z,0.00
2018-06-25T02:31:14.763Z,1.00
2018-06-25T02:33:42.968Z,1.40
2018-06-25T02:36:10.878Z,1.00
2018-06-25T02:38:38.510Z,2.60
2018-06-25T02:41:06.150Z,1.40
2018-06-25T02:43:34.299Z,0.60
2018-06-25T02:46:02.723Z,1.00
2018-06-25T02:48:31.013Z,1.00
2018-06-25T02:50:59.670Z,1.80
2018-06-25T02:53:27.362Z,3.00
2018-06-25T02:55:54.957Z,1.00
2018-06-25T02:58:22.840Z,1.00
2018-06-25T03:00:50.480Z,2.60
2018-06-25T03:03:18.163Z,0.20
2018-06-25T03:05:45.779Z,1.00
2018-06-25T03:08:13.681Z,1.00
2018-06-25T03:10:41.305Z,1.00
2018-06-25T03:13:08.973Z,3.00
2018-06-25T03:15:38.000Z,1.00
2018-06-25T03:18:05.616Z,1.00
2018-06-25T03:20:33.212Z,0.80
2018-06-25T03:23:00.848Z,0.00
2018-06-25T03:25:28.727Z,1.00
2018-06-25T03:27:56.325Z,1.00
2018-06-25T03:30:24.709Z,2.60
2018-06-25T03:32:52.835Z,3.40
2018-06-25T03:35:20.725Z,3.00
2018-06-25T03:37:48.519Z,2.40
2018-06-25T03:40:16.120Z,3.00
2018-06-25T03:42:43.756Z,3.00
2018-06-25T03:45:11.695Z,3.00
2018-06-25T03:47:39.687Z,3.00
2018-06-25T03:50:07.325Z,0.60
2018-06-25T03:52:34.990Z,0.20
2018-06-25T03:55:02.884Z,3.40
2018-06-25T03:57:30.499Z,3.00
2018-06-25T03:59:58.126Z,3.00
2018-06-25T04:02:26.303Z,1.80
2018-06-25T04:04:54.224Z,3.80
2018-06-25T04:07:21.867Z,5.60
2018-06-25T04:09:49.510Z,6.60
2018-06-25T04:12:17.156Z,4.40
2018-06-25T04:14:45.140Z,4.80
2018-06-25T04:17:12.775Z,3.00
2018-06-25T04:19:40.649Z,5.20
2018-06-25T04:22:13.155Z,4.00
2018-06-25T04:24:43.039Z,4.80
2018-06-25T04:27:10.697Z,5.20
2018-06-25T04:29:38.317Z,5.60
2018-06-25T04:32:05.944Z,3.60
2018-06-25T04:34:34.899Z,3.60
2018-06-25T04:37:02.569Z,3.00
2018-06-25T04:39:30.186Z,3.00
2018-06-25T04:41:58.116Z,3.20
2018-06-25T04:44:26.336Z,1.00
2018-06-25T04:46:54.944Z,3.60
2018-06-25T04:49:22.842Z,3.60
2018-06-25T04:51:50.443Z,1.40
2018-06-25T04:54:18.097Z,2.20
2018-06-25T04:56:46.563Z,3.00
2018-06-25T04:59:14.203Z,1.00
2018-06-25T05:01:41.802Z,3.00
2018-06-25T05:04:09.779Z,4.20
2018-06-25T05:06:37.400Z,2.20
2018-06-25T05:09:05.079Z,2.60
2018-06-25T05:11:32.984Z,3.20
2018-06-25T05:14:00.596Z,4.00
2018-06-25T05:16:28.218Z,1.00
2018-06-25T05:18:56.135Z,1.00
2018-06-25T05:21:23.848Z,1.40
2018-06-25T05:23:51.463Z,3.00
2018-06-25T05:26:19.371Z,2.20
2018-06-25T05:28:48.684Z,3.00
2018-06-25T05:31:21.419Z,3.00
2018-06-25T05:33:49.319Z,1.40
2018-06-25T05:36:16.963Z,2.20
2018-06-25T05:38:44.603Z,1.00
2018-06-25T05:41:12.516Z,3.00
2018-06-25T05:43:40.178Z,3.00
2018-06-25T05:46:07.812Z,3.00
2018-06-25T05:48:35.437Z,2.60
2018-06-25T05:51:03.120Z,3.00
2018-06-25T05:53:31.032Z,3.00
2018-06-25T05:55:58.677Z,2.60
2018-06-25T05:58:26.318Z,3.00
2018-06-25T06:00:54.215Z,3.00
2018-06-25T06:03:21.855Z,1.40
2018-06-25T06:05:49.485Z,3.00
2018-06-25T06:08:17.772Z,3.00
2018-06-25T06:10:45.520Z,2.60
2018-06-25T06:13:14.310Z,2.60
2018-06-25T06:15:44.208Z,3.00
2018-06-25T06:18:11.862Z,3.80
2018-06-25T06:20:39.785Z,3.00
2018-06-25T06:23:07.917Z,3.00
2018-06-25T06:25:35.590Z,1.00
2018-06-25T06:28:04.232Z,2.60
2018-06-25T06:30:32.127Z,3.00
2018-06-25T06:32:59.763Z,3.00
2018-06-25T06:35:27.393Z,3.60
2018-06-25T06:37:55.311Z,3.40
2018-06-25T06:40:22.927Z,1.80
2018-06-25T06:42:50.531Z,3.60
2018-06-25T06:45:19.732Z,3.40
2018-06-25T06:47:47.608Z,2.20
2018-06-25T06:50:16.036Z,1.40
2018-06-25T06:52:44.720Z,1.40
2018-06-25T06:55:12.959Z,3.00
2018-06-25T06:57:40.607Z,3.00
2018-06-25T07:00:08.524Z,3.00
2018-06-25T07:02:36.702Z,3.20
2018-06-25T07:05:06.499Z,2.60
2018-06-25T07:07:34.623Z,0.00
2018-06-25T07:10:03.063Z,3.00
2018-06-25T07:12:30.709Z,3.00
2018-06-25T07:14:58.593Z,3.20
2018-06-25T07:17:27.179Z,4.00
2018-06-25T07:19:54.792Z,4.00
2018-06-25T07:22:22.789Z,3.60
2018-06-25T07:24:50.395Z,4.00
2018-06-25T07:27:18.790Z,3.60
2018-06-25T07:29:48.716Z,3.60
2018-06-25T07:32:18.056Z,4.00
2018-06-25T07:34:45.671Z,3.20
2018-06-25T07:37:14.544Z,3.60
2018-06-25T07:39:42.139Z,4.00
2018-06-25T07:42:10.296Z,4.00
2018-06-25T07:44:39.343Z,3.20
2018-06-25T07:47:07.685Z,6.40
2018-06-25T07:49:35.341Z,5.20
2018-06-25T07:52:03.479Z,4.00
2018-06-25T07:54:31.107Z,3.40
2018-06-25T07:56:58.710Z,4.00
2018-06-25T07:59:26.617Z,4.00
2018-06-25T08:01:55.411Z,3.80
2018-06-25T08:04:23.043Z,3.80
2018-06-25T08:06:50.949Z,4.00
2018-06-25T08:09:18.584Z,4.40
2018-06-25T08:11:46.988Z,5.20
2018-06-25T08:14:15.129Z,4.80
2018-06-25T08:16:42.812Z,6.00
2018-06-25T08:19:10.408Z,3.00
2018-06-25T08:21:38.287Z,3.60
2018-06-25T08:24:05.882Z,4.00
2018-06-25T08:26:33.468Z,3.80
2018-06-25T08:29:01.369Z,4.00
2018-06-25T08:31:28.995Z,4.40
2018-06-25T08:33:56.671Z,4.00
2018-06-25T08:36:24.577Z,6.00
2018-06-25T08:38:52.211Z,4.00
2018-06-25T08:41:20.579Z,3.20
2018-06-25T08:43:48.691Z,4.80
2018-06-25T08:46:16.285Z,4.40
2018-06-25T08:48:44.578Z,4.00
2018-06-25T08:51:12.487Z,4.40
2018-06-25T08:53:40.090Z,3.00
2018-06-25T08:56:07.732Z,5.60
2018-06-25T08:58:35.628Z,4.00
2018-06-25T09:01:03.267Z,4.40
2018-06-25T09:03:31.507Z,4.00
2018-06-25T09:06:00.242Z,4.00
2018-06-25T09:08:27.839Z,4.00
2018-06-25T09:10:56.352Z,6.20
2018-06-25T09:13:26.421Z,3.00
2018-06-25T09:15:54.092Z,3.80
2018-06-25T09:18:22.365Z,3.00
2018-06-25T09:20:52.237Z,4.00
2018-06-25T09:23:20.435Z,4.00
2018-06-25T09:25:49.153Z,6.20
2018-06-25T09:28:17.076Z,4.80
2018-06-25T09:30:44.669Z,3.80
2018-06-25T09:33:12.332Z,4.00
2018-06-25T09:35:40.230Z,3.80
2018-06-25T09:38:08.691Z,3.40
2018-06-25T09:40:38.223Z,3.40
2018-06-25T09:43:06.107Z,3.60
2018-06-25T09:45:34.363Z,4.00
2018-06-25T09:48:03.184Z,0.80
2018-06-25T09:50:31.869Z,5.20
2018-06-25T09:52:59.523Z,5.60
2018-06-25T09:55:27.672Z,6.20
2018-06-25T09:57:55.585Z,7.80
2018-06-25T10:00:28.151Z,6.00
2018-06-25T10:02:55.808Z,6.00
2018-06-25T10:05:24.421Z,8.80
2018-06-25T10:07:56.068Z,9.00
2018-06-25T10:10:23.708Z,9.60
2018-06-25T10:12:51.768Z,7.40
2018-06-25T10:15:19.524Z,9.40
2018-06-25T10:17:48.292Z,6.80
2018-06-25T10:20:16.504Z,8.60
2018-06-25T10:22:44.188Z,6.80
2018-06-25T10:25:11.825Z,5.20
2018-06-25T10:27:39.738Z,7.40
2018-06-25T10:30:07.554Z,6.00
2018-06-25T10:32:36.971Z,4.40
2018-06-25T10:35:04.864Z,7.80
2018-06-25T10:37:33.448Z,7.40
2018-06-25T10:40:01.116Z,9.00
2018-06-25T10:42:30.478Z,6.00
2018-06-25T10:44:59.003Z,6.00
2018-06-25T10:47:27.227Z,6.60
2018-06-25T10:49:55.260Z,6.20
2018-06-25T10:52:24.284Z,6.60
2018-06-25T10:54:52.188Z,6.20
2018-06-25T10:57:22.403Z,4.00
2018-06-25T10:59:51.500Z,5.60
2018-06-25T11:02:19.344Z,4.00
2018-06-25T11:04:48.249Z,5.20
2018-06-25T11:07:17.225Z,3.00
2018-06-25T11:09:47.239Z,2.60
2018-06-25T11:12:14.852Z,7.40
2018-06-25T11:14:42.485Z,6.40
2018-06-25T11:17:10.398Z,7.00
2018-06-25T11:19:38.647Z,6.40
2018-06-25T11:22:06.272Z,6.60
2018-06-25T11:24:37.223Z,7.60
2018-06-25T11:27:05.056Z,8.80
2018-06-25T11:29:32.548Z,5.20
2018-06-25T11:32:01.594Z,5.20
2018-06-25T11:34:29.904Z,5.80
2018-06-25T11:36:58.403Z,5.00
2018-06-25T11:39:26.356Z,6.20
2018-06-25T11:41:53.987Z,8.00
2018-06-25T11:44:21.645Z,4.00
2018-06-25T11:46:51.195Z,4.20
2018-06-25T11:49:20.280Z,4.00
2018-06-25T11:51:49.146Z,4.40
2018-06-25T11:54:19.937Z,3.20
2018-06-25T11:56:48.692Z,5.00
2018-06-25T11:59:16.297Z,4.60
2018-06-25T12:01:44.530Z,5.00
2018-06-25T12:04:14.241Z,3.60
2018-06-25T12:09:16.151Z,4.00
2018-06-25T12:11:43.770Z,2.80
2018-06-25T12:14:12.089Z,2.40
2018-06-25T12:16:39.916Z,2.00
2018-06-25T12:19:08.532Z,3.20
2018-06-25T12:21:36.136Z,2.00
2018-06-25T12:24:04.036Z,1.00
2018-06-25T12:26:31.629Z,2.00
2018-06-25T12:28:59.839Z,2.00
2018-06-25T12:31:28.355Z,2.00
2018-06-25T12:33:56.748Z,2.40
2018-06-25T12:36:24.404Z,3.20
2018-06-25T12:38:52.991Z,1.40
2018-06-25T12:41:20.614Z,2.80
2018-06-25T12:43:48.229Z,3.60
2018-06-25T12:48:54.384Z,4.80
2018-06-25T12:51:22.658Z,4.00
2018-06-25T12:53:51.082Z,4.40
2018-06-25T12:56:20.432Z,6.00
2018-06-25T12:58:48.063Z,5.20
2018-06-25T13:01:15.700Z,4.00
2018-06-25T13:03:43.594Z,3.60
2018-06-25T13:06:12.456Z,2.20
2018-06-25T13:08:40.073Z,1.60
2018-06-25T13:11:10.647Z,2.60
2018-06-25T13:13:39.898Z,2.00
2018-06-25T13:16:09.431Z,3.00
2018-06-25T13:18:37.327Z,2.00
2018-06-25T13:21:04.938Z,1.00
2018-06-25T13:23:32.560Z,3.00
2018-06-25T13:26:09.093Z,1.80
2018-06-25T13:28:36.916Z,3.00
2018-06-25T13:31:04.611Z,2.00
2018-06-25T13:33:34.589Z,3.00
2018-06-25T13:36:02.200Z,1.00
2018-06-25T13:38:30.650Z,2.80
2018-06-25T13:41:01.073Z,3.00
2018-06-25T13:43:28.683Z,3.00
2018-06-25T13:45:56.295Z,1.00
2018-06-25T13:48:25.107Z,3.80
2018-06-25T13:50:53.491Z,4.60
2018-06-25T13:53:24.759Z,2.00
2018-06-25T13:55:56.064Z,3.00
2018-06-25T13:58:24.255Z,2.20
2018-06-25T14:09:02.624Z,2.00
2018-06-25T14:11:31.198Z,2.40
2018-06-25T14:13:59.636Z,3.20
2018-06-25T14:16:27.360Z,3.20
2018-06-25T14:18:55.232Z,2.20
2018-06-25T14:21:25.836Z,3.40
2018-06-25T14:23:59.156Z,2.20
2018-06-25T14:26:31.667Z,2.60
2018-06-25T14:29:00.356Z,2.20
2018-06-25T14:31:29.367Z,2.00
2018-06-25T14:34:02.939Z,2.80
2018-06-25T14:36:30.600Z,2.40
2018-06-25T14:38:58.194Z,2.00
2018-06-25T14:41:27.308Z,2.80
2018-06-25T14:43:54.955Z,2.00
2018-06-25T14:46:22.590Z,3.00
2018-06-25T14:48:50.475Z,2.20
2018-06-25T14:51:18.108Z,2.00
2018-06-25T14:53:45.718Z,3.40
2018-06-25T14:56:14.339Z,5.00
2018-06-25T14:58:42.731Z,5.00
2018-06-25T15:01:12.914Z,6.20
2018-06-25T15:03:40.840Z,6.00
2018-06-25T15:06:10.252Z,3.20
2018-06-25T15:08:38.600Z,5.20
2018-06-25T15:11:11.383Z,4.60
2018-06-25T15:13:41.028Z,3.40
2018-06-25T15:16:09.278Z,2.80
2018-06-25T15:18:40.271Z,2.80
2018-06-25T15:21:08.528Z,3.00
2018-06-25T15:23:36.143Z,3.00
2018-06-25T15:26:04.024Z,3.00
2018-06-25T15:28:32.219Z,2.80
2018-06-25T15:31:02.671Z,3.00
2018-06-25T15:33:30.621Z,2.40
2018-06-25T15:36:00.439Z,4.00
2018-06-25T15:38:28.738Z,4.00
2018-06-25T15:40:56.666Z,4.60
2018-06-25T15:43:24.495Z,3.20
2018-06-25T15:45:52.110Z,4.00
2018-06-25T15:48:20.003Z,6.20
2018-06-25T15:50:47.631Z,2.60
2018-06-25T15:53:15.888Z,3.00
2018-06-25T15:55:44.361Z,3.00
2018-06-25T15:58:12.878Z,3.00
2018-06-25T16:00:41.290Z,3.00
2018-06-25T16:03:10.313Z,4.00
2018-06-25T16:05:38.201Z,3.00
2018-06-25T16:08:05.849Z,2.80
2018-06-25T16:10:34.728Z,3.20
2018-06-25T16:13:03.258Z,3.00
2018-06-25T16:15:32.037Z,2.00
2018-06-25T16:17:59.911Z,3.00
2018-06-25T16:20:27.513Z,3.40
2018-06-25T16:22:55.120Z,3.00
2018-06-25T16:25:23.039Z,3.00
2018-06-25T16:27:51.783Z,2.60
2018-06-25T16:30:19.411Z,2.80
2018-06-25T16:32:47.448Z,3.00
2018-06-25T16:35:15.259Z,2.60
2018-06-25T16:37:42.858Z,1.80
2018-06-25T16:40:12.419Z,2.80
2018-06-25T16:42:41.392Z,3.40
2018-06-25T16:45:09.000Z,3.00
2018-06-25T16:47:38.288Z,2.60
2018-06-25T16:50:11.122Z,2.60
2018-06-25T16:52:38.759Z,3.00
2018-06-25T16:55:07.619Z,3.00
2018-06-25T16:57:35.235Z,3.00
2018-06-25T17:00:02.863Z,2.60
2018-06-25T17:02:32.154Z,3.00
2018-06-25T17:04:59.843Z,3.00
2018-06-25T17:07:27.500Z,2.80
2018-06-25T17:09:55.442Z,5.00
2018-06-25T17:12:23.771Z,5.00
2018-06-25T17:14:51.380Z,5.00
2018-06-25T17:17:23.267Z,2.80
2018-06-25T17:19:51.399Z,4.00
2018-06-25T17:22:19.878Z,2.00
2018-06-25T17:24:47.760Z,4.40
2018-06-25T17:27:15.468Z,4.00
2018-06-25T17:29:44.473Z,4.20
2018-06-25T17:32:13.967Z,4.40
2018-06-25T17:34:42.614Z,4.00
2018-06-25T17:37:12.892Z,2.00
2018-06-25T17:39:45.305Z,5.00
2018-06-25T17:42:16.597Z,4.80
2018-06-25T17:44:45.231Z,4.60
2018-06-25T17:47:13.324Z,4.80
2018-06-25T17:49:40.947Z,7.80
2018-06-25T17:52:09.259Z,5.00
2018-06-25T17:54:39.268Z,3.60
2018-06-25T17:57:08.263Z,5.60
2018-06-25T17:59:43.451Z,6.20
2018-06-25T18:04:43.689Z,5.00
2018-06-25T18:07:16.469Z,5.00
2018-06-25T18:09:44.335Z,5.00
2018-06-25T18:12:12.502Z,4.40
2018-06-25T18:14:43.146Z,4.00
2018-06-25T18:17:15.438Z,2.00
2018-06-25T18:19:44.322Z,2.00
2018-06-25T18:22:13.420Z,4.60
2018-06-25T18:24:43.731Z,4.00
2018-06-25T18:27:11.355Z,4.20
2018-06-25T18:29:39.632Z,3.60
2018-06-25T18:32:09.155Z,4.00
2018-06-25T18:34:36.751Z,2.00
2018-06-25T18:37:07.535Z,3.60
2018-06-25T18:39:39.371Z,3.60
2018-06-25T18:42:08.289Z,3.20
2018-06-25T18:44:38.372Z,2.00
2018-06-25T18:47:06.832Z,4.00
2018-06-25T18:49:34.733Z,2.40
2018-06-25T18:52:03.052Z,3.60
2018-06-25T18:54:30.813Z,3.20
2018-06-25T18:57:00.466Z,4.00
2018-06-25T18:59:31.335Z,2.00
2018-06-25T19:02:00.315Z,4.00
2018-06-25T19:04:32.301Z,4.80
2018-06-25T19:07:03.421Z,3.80
2018-06-25T19:09:33.915Z,4.80
2018-06-25T19:12:02.499Z,4.00
2018-06-25T19:14:32.456Z,2.00
2018-06-25T19:17:00.072Z,4.20
2018-06-25T19:19:31.854Z,4.20
2018-06-25T19:21:59.468Z,4.00
2018-06-25T19:24:27.089Z,4.00
2018-06-25T19:26:55.164Z,2.40
2018-06-25T19:29:22.765Z,2.00
2018-06-25T19:31:51.231Z,4.00
2018-06-25T19:34:22.717Z,4.00
2018-06-25T19:36:50.318Z,4.00
2018-06-25T19:39:19.126Z,1.80
2018-06-25T19:41:47.843Z,3.40
2018-06-25T19:44:16.080Z,4.00
2018-06-25T19:46:43.771Z,4.80
2018-06-25T19:49:11.643Z,4.60
2018-06-25T19:51:39.276Z,4.40
2018-06-25T19:54:07.056Z,3.40
2018-06-25T19:56:35.649Z,5.00
2018-06-25T19:59:06.546Z,4.00
2018-06-25T20:01:36.564Z,4.00
2018-06-25T20:04:23.952Z,4.00
2018-06-25T20:06:52.351Z,4.00
2018-06-25T20:09:20.288Z,3.60
2018-06-25T20:11:47.911Z,4.00
2018-06-25T20:14:16.104Z,3.80
2018-06-25T20:16:45.316Z,5.20
2018-06-25T20:19:14.360Z,4.80
2018-06-25T20:21:42.231Z,4.80
2018-06-25T20:24:10.103Z,4.80
2018-06-25T20:26:39.294Z,3.80
2018-06-25T20:29:07.787Z,5.20
2018-06-25T20:31:37.402Z,3.80
2018-06-25T20:34:05.869Z,3.80
2018-06-25T20:36:34.287Z,4.40
2018-06-25T20:39:02.215Z,6.00
2018-06-25T20:41:31.413Z,4.00
2018-06-25T20:44:00.504Z,4.80
2018-06-25T20:46:28.379Z,4.00
2018-06-25T20:48:56.000Z,4.00
2018-06-25T20:51:24.856Z,4.80
2018-06-25T20:53:54.037Z,5.20
2018-06-25T20:56:23.041Z,6.00
2018-06-25T20:58:51.701Z,4.80
2018-06-25T21:01:19.596Z,6.00
2018-06-25T21:03:48.812Z,4.00
2018-06-25T21:06:16.520Z,5.20
2018-06-25T21:08:44.406Z,3.80
2018-06-25T21:11:12.143Z,5.20
2018-06-25T21:13:39.742Z,6.00
2018-06-25T21:16:09.330Z,5.60
2018-06-25T21:18:38.620Z,4.80
2018-06-25T21:21:07.943Z,2.60
2018-06-25T21:23:36.887Z,4.00
2018-06-25T21:26:05.447Z,6.80
2018-06-25T21:28:33.819Z,4.00
2018-06-25T21:31:02.011Z,4.00
2018-06-25T21:33:29.922Z,5.20
2018-06-25T21:35:58.653Z,6.00
2018-06-25T21:38:26.536Z,6.60
2018-06-25T21:40:55.527Z,5.60
2018-06-25T21:43:23.952Z,4.00
2018-06-25T21:45:53.011Z,6.00
2018-06-25T21:48:20.615Z,7.20
2018-06-25T21:50:49.319Z,6.80
2018-06-25T21:53:19.628Z,6.00
2018-06-25T21:55:48.589Z,6.80
2018-06-25T21:58:19.366Z,6.80
2018-06-25T22:00:51.175Z,5.60
2018-06-25T22:03:18.812Z,5.60
2018-06-25T22:05:47.154Z,5.60
2018-06-25T22:08:14.749Z,6.80
2018-06-25T22:10:42.580Z,4.40
2018-06-25T22:13:11.457Z,6.20
2018-06-25T22:15:39.879Z,6.00
2018-06-25T22:18:07.528Z,4.00
2018-06-25T22:20:35.428Z,4.40
2018-06-25T22:23:03.647Z,5.20
2018-06-25T22:25:31.259Z,6.60
2018-06-25T22:27:59.251Z,4.80
2018-06-25T22:30:27.764Z,7.00
2018-06-25T22:32:55.440Z,6.00
2018-06-25T22:35:25.470Z,6.00
2018-06-25T22:37:53.067Z,4.40
2018-06-25T22:40:21.393Z,4.20
2018-06-25T22:42:49.334Z,5.20
2018-06-25T22:45:17.335Z,5.60
2018-06-25T22:47:45.882Z,7.00
2018-06-25T22:50:14.413Z,5.60
2018-06-25T22:52:44.220Z,4.00
2018-06-25T22:55:11.812Z,4.00
2018-06-25T22:57:41.359Z,8.60
2018-06-25T23:00:09.232Z,6.00
2018-06-25T23:02:39.795Z,7.00
2018-06-25T23:05:09.644Z,6.00
2018-06-25T23:07:38.056Z,6.40
2018-06-25T23:10:05.648Z,6.60
2018-06-25T23:12:33.874Z,6.60
2018-06-25T23:15:03.072Z,4.80
2018-06-25T23:17:30.685Z,7.40
2018-06-25T23:19:58.826Z,6.80
2018-06-25T23:22:27.732Z,7.00
2018-06-25T23:24:55.358Z,7.00
2018-06-25T23:27:22.979Z,7.80
2018-06-25T23:29:50.899Z,7.00
2018-06-25T23:32:18.511Z,6.00
2018-06-25T23:34:47.304Z,6.60
2018-06-25T23:37:14.925Z,6.80
2018-06-25T23:39:43.683Z,7.40
2018-06-25T23:42:11.284Z,6.20
2018-06-25T23:44:38.879Z,6.00
2018-06-25T23:47:06.484Z,7.80
2018-06-25T23:49:34.374Z,9.00
2018-06-25T23:52:02.691Z,7.80
2018-06-25T23:54:30.285Z,8.60
2018-06-25T23:56:58.585Z,7.20
2018-06-25T23:59:26.468Z,6.20
